Tiempo atmosférico en la estación meteorológica de Valdezcaray, estación de esquí, La Rioja (1630 m.)



Fecha
DESCASC
Temp. máxima en grados centígrados (hora)
DESCASC
Temp. mínima en grados centígrados (hora)
DESCASC
Temp. media en grados centígrados
DESCASC
Racha de viento máxima en m/sg (hora)
DESCASC
Velocidad máxima media en intervalos de 10 minutos(hora)
DESCASC
Precipitaciones diarias en mm
DESCASC
Precipitaciones de 00:00 a 06:00 en mm
DESCASC
Precipitaciones de 06:00 a 12:00 en mm
DESCASC
Precipitaciones de 12:00 a 18:00 en mm
DESCASC
Precipitaciones de 18:00 a 24:00 en mm
DESCASC
19-09-2019 15.7 (18:10) 9.5 (04:10) 12.6 8.89 (23:59) 6.11 (23:59) 0 0 0 0 0
18-09-2019 16.1 (13:20) 10.4 (03:50) 13.3 15.28 (02:30) 11.67 (02:30) 2 0.6 0 1.4 0
17-09-2019 18 (13:30) 11.9 (00:00) 14.9 8.06 (23:59) 6.67 (23:50) 7.6 0 0 7.4 0.2
16-09-2019 17.1 (15:00) 12.2 (00:00) 14.7 11.39 (02:30) 5.83 (02:30) 7.6 1.4 0 6 0.2
15-09-2019 17 (12:10) 11.9 (00:00) 14.4 14.72 (08:30) 9.17 (13:30) 6.6 0 0.2 4 2.4
14-09-2019 17.8 (18:00) 12.1 (00:00) 14.9 14.17 (23:00) 8.33 (07:30) 0 0 0 0 0
13-09-2019 16.9 (13:10) 12.6 (00:00) 14.8 16.39 (17:50) 10.56 (17:50) 1 0 0 0.8 0.2
12-09-2019 19.2 (16:40) 5 (00:00) 12.1 7.5 (04:50) 6.11 (07:00) 0 0 0 0 0
11-09-2019 8.5 (18:00) 4.1 (00:00) 6.3 14.72 (06:30) 5.28 (10:00) 0.6 0.6 0 0 0
10-09-2019 6.9 (00:00) 2.3 (06:30) 4.6 15.28 (22:30) 7.78 (17:30) 15.4 0.8 1.4 5 8.2
09-09-2019 17.1 (16:20) 6.9 (23:50) 12 14.72 (15:50) 7.78 (16:00) 0 0 0 0 0
08-09-2019 13 (17:00) 4.9 (00:00) 9 6.39 (03:20) 5 (05:30) 0 0 0 0 0
07-09-2019 12.9 (16:10) 3.1 (00:00) 8 7.5 (17:10) 3.89 (09:40) 0 0 0 0 0
06-09-2019 10.5 (16:50) 4 (00:00) 7.3 9.17 (11:00) 4.17 (17:20) 0 0 0 0 0
05-09-2019 9.2 (15:50) 4.8 (00:00) 7 11.94 (12:10) 5 (13:50) 2.6 1.4 1.2 0 0
04-09-2019 17.2 (10:40) 7.4 (00:00) 12.3 8.06 (18:50) 4.44 (17:20) 0 0 0 0 0
03-09-2019 18.6 (16:50) 4.9 (00:00) 11.8 6.39 (07:00) 5.28 (07:00) 0 0 0 0 0
02-09-2019 12.9 (17:00) 5.1 (00:00) 9 5.56 (01:00) 3.06 (01:00) 3 2.6 0.4 0 0
01-09-2019 17.1 (04:40) 9.5 (00:00) 13.3 6.11 (03:30) 3.06 (04:30) 2.6 0.2 0 0.2 2.2
31-08-2019 22.7 (14:40) 13 (00:00) 17.9 10.83 (00:50) 8.06 (01:00) 0 0 0 0 0
30-08-2019 24.1 (18:50) 17.3 (00:00) 20.7 11.11 (17:00) 8.33 (17:10) 0 0 0 0 0
29-08-2019 22.2 (15:00) 15.3 (00:00) 18.8 7.78 (04:30) 6.39 (03:20) 0 0 0 0 0
28-08-2019 21.5 (18:00) 12.7 (00:00) 17.1 6.67 (23:50) 5.83 (23:59) 0 0 0 0 0
27-08-2019 17.8 (18:40) 11 (00:00) 14.4 10 (04:00) 7.78 (04:00) 0 0 0 0 0
26-08-2019 20 (14:00) 11.9 (00:00) 15.9 11.94 (10:30) 6.94 (00:20) 7.6 0 0 2.8 4.8
25-08-2019 23.9 (17:30) 14.8 (00:00) 19.3 12.5 (18:10) 8.89 (05:20) 0 0 0 0 0
24-08-2019 23.6 (17:50) 15.6 (00:00) 19.6 8.89 (22:00) 7.78 (04:20) 0 0 0 0 0
23-08-2019 22.3 (16:00) 13.8 (00:00) 18 6.67 (05:40) 5.28 (05:50) 0 0 0 0 0
22-08-2019 19.4 (18:10) 9.3 (00:00) 14.3 6.94 (06:40) 5.56 (06:00) 0 0 0 0 0
21-08-2019 17.3 (17:50) 7.8 (00:00) 12.5 8.33 (07:20) 6.67 (02:20) 0 0 0 0 0

Gráficas

Temp. máximas Temp. mínimas Temp. medias Precipitaciones Rachas de viento máximas Velocidades máximas media en intervalos de 10 minutos

Datos horarios

Fecha y hora oficial Temperatura (ºC) Velocidad del viento (km/h) Dirección del viento Racha (km/h) Dirección de racha Precipitación (mm) Presión (hPa) Tendencia (hPa) Humedad (%)
2019-09-19 23:00:00 14.6 14 Sudeste 25 Sudeste 0 -- -- 76
2019-09-19 22:00:00 13.8 17 Sudeste 23 Sudeste 0 -- -- 87
2019-09-19 21:00:00 14.1 17 Sudeste 22 Sudeste 0 -- -- 86
2019-09-19 20:00:00 14.2 12 Sudeste 18 Este 0 -- -- 90
2019-09-19 19:00:00 14.8 10 Este 15 Este 0 -- -- 85
2019-09-19 18:00:00 14.9 3 Noroeste 9 Este 0 -- -- 88
2019-09-19 17:00:00 14.5 4 Sur 18 Este 0 -- -- 88
2019-09-19 16:00:00 13.8 2 Noroeste 10 Este 0 -- -- 92
2019-09-19 15:00:00 13.7 5 Norte 8 Norte 0 -- -- 91
2019-09-19 14:00:00 12.9 4 Noroeste 8 Noroeste 0 -- -- 92
2019-09-19 13:00:00 13.6 4 Noroeste 10 Noroeste 0 -- -- 84
2019-09-19 12:00:00 14.4 5 Noroeste 9 Noroeste 0 -- -- 78
2019-09-19 11:00:00 13.6 2 Noroeste 6 Noroeste 0 -- -- 77
2019-09-19 10:00:00 12.1 0 Calma 10 Sudeste 0 -- -- 88
2019-09-19 09:00:00 12 8 Sudeste 12 Sur 0 -- -- 85
2019-09-19 08:00:00 11.1 5 Sur 12 Sur 0 -- -- 87
2019-09-19 07:00:00 10.9 4 Sur 10 Sur 0 -- -- 85
2019-09-19 06:00:00 10.4 0 Calma 14 Sur 0 -- -- 85
2019-09-19 05:00:00 11.4 4 Sudeste 10 Sudeste 0 -- -- 82
2019-09-19 04:00:00 10 2 Sudeste 10 Este 0 -- -- 87
2019-09-19 03:00:00 10.7 8 Sudeste 13 Sudeste 0 -- -- 83
2019-09-19 02:00:00 10 5 Sudeste 11 Sudeste 0 -- -- 89
2019-09-19 01:00:00 10.6 6 Sudeste 12 Este 0 -- -- 85
2019-09-19 00:00:00 11.4 5 Sudeste 8 Sudeste 0 -- -- 92
2019-09-18 23:00:00 11.5 3 Sudeste 8 Sudeste 0 -- -- 99
2019-09-18 22:00:00 12 6 Sur 10 Sur 0 -- -- 93
2019-09-18 21:00:00 11.8 3 Este 6 Noroeste 0 -- -- 92
2019-09-18 20:00:00 12.7 3 Nordeste 12 Noroeste 0 -- -- 93
2019-09-18 19:00:00 15.1 6 Noroeste 11 Noroeste 0 -- -- 76
2019-09-18 18:00:00 14.7 2 Oeste 5 Norte 0 -- -- 71
2019-09-18 17:00:00 12.6 5 Nordeste 12 Noroeste 0.4 -- -- 98
2019-09-18 16:00:00 12.8 4 Noroeste 14 Norte 1 -- -- 100
2019-09-18 15:00:00 14.1 9 Noroeste 15 Noroeste 0 -- -- 95
2019-09-18 14:00:00 15.6 7 Noroeste 12 Noroeste 0 -- -- 72
2019-09-18 13:00:00 15.9 3 Noroeste 9 Noroeste 0 -- -- 61
2019-09-18 12:00:00 15.3 4 Noroeste 8 Norte 0 -- -- 61
2019-09-18 11:00:00 14.9 4 Norte 14 Sudeste 0 -- -- 58
2019-09-18 10:00:00 12.1 4 Este 13 Este 0 -- -- 71
2019-09-18 09:00:00 10.8 7 Sudeste 15 Este 0 -- -- 73
2019-09-18 08:00:00 11.9 6 Sudeste 11 Sur 0 -- -- 67
2019-09-18 07:00:00 11.1 7 Sudeste 10 Sudeste 0 -- -- 72
2019-09-18 06:00:00 12.3 6 Sur 21 Sur 0 -- -- 66
2019-09-18 05:00:00 11.3 10 Sudeste 17 Sudeste 0 -- -- 74
2019-09-18 04:00:00 10.5 6 Sudeste 34 Sudeste 0 -- -- 89
2019-09-18 03:00:00 11.5 31 Sudeste 55 Sur 0 -- -- 82
2019-09-18 02:00:00 11.6 30 Sur 46 Sur 0.6 -- -- 88
2019-09-18 01:00:00 12.8 32 Sur 47 Sur 0 -- -- 86
2019-09-18 00:00:00 15.5 24 Sur 29 Sudeste 0 -- -- 75
2019-09-17 23:00:00 14.4 18 Sudeste 22 Sudeste 0 -- -- 79
2019-09-17 22:00:00 14.9 17 Sudeste 23 Sudeste 0 -- -- 74
2019-09-17 21:00:00 15.2 20 Sudeste 27 Sudeste 0 -- -- 73
2019-09-15 18:00:00 -- -- -- -- -- -- -- -- --
2019-09-15 17:00:00 14.1 12 Sudeste 31 Sudeste 0 -- -- 81
2019-09-15 16:00:00 14 26 Sur 39 Sur 0.2 -- -- 71
2019-09-15 15:00:00 13.4 10 Sudoeste 49 Este 1.4 -- -- 66
2019-09-15 14:00:00 13.2 10 Sudeste 49 Este 2.4 -- -- 70
2019-09-15 13:00:00 16.4 17 Sudeste 30 Sudeste 0 -- -- 61
2019-09-15 12:00:00 16.2 22 Sudeste 41 Sudeste 0 -- -- 61
2019-09-15 11:00:00 15.8 22 Sudeste 40 Sudeste 0 -- -- 62
2019-09-15 10:00:00 13.9 29 Sur 50 Sudeste 0 -- -- 60
2019-09-15 09:00:00 13 22 Sudeste 53 Sudeste 0.2 -- -- 65
2019-09-15 08:00:00 13.6 22 Sudeste 42 Este 0 -- -- 64
2019-09-15 07:00:00 14.6 20 Sudeste 39 Este 0 -- -- 63
2019-09-15 06:00:00 14.7 13 Sur 42 Sudeste 0 -- -- 68
2019-09-15 05:00:00 14.2 20 Sudeste 46 Sudeste 0 -- -- 72
2019-09-15 04:00:00 14.4 20 Sudeste 40 Sur 0 -- -- 75
2019-09-15 03:00:00 14.4 17 Sudeste 42 Sudeste 0 -- -- 69
2019-09-15 02:00:00 14.8 21 Sudeste 45 Este 0 -- -- 62
2019-09-15 01:00:00 15.3 16 Sudeste 51 Sudeste 0 -- -- 60
2019-09-15 00:00:00 15.3 22 Sudeste 51 Sudeste 0 -- -- 59
2019-09-14 23:00:00 15.7 26 Sudeste 51 Este 0 -- -- 59
2019-09-14 22:00:00 14.6 22 Sudeste 37 Sudeste 0 -- -- 62
2019-09-14 21:00:00 15.3 19 Sur 31 Sudeste 0 -- -- 59
2019-09-14 20:00:00 16 6 Este 27 Este 0 -- -- 58
2019-09-14 19:00:00 16.9 11 Sur 28 Sudeste 0 -- -- 56
2019-09-14 18:00:00 17.8 8 Este 35 Sudeste 0 -- -- 55
2019-09-14 17:00:00 16.7 15 Sudeste 29 Sudeste 0 -- -- 61
2019-09-14 16:00:00 16.7 13 Sur 36 Sur 0 -- -- 64
2019-09-14 15:00:00 15.8 9 Sudoeste 36 Sudeste 0 -- -- 69
2019-09-14 14:00:00 16.1 11 Sur 33 Sur 0 -- -- 67
2019-09-14 13:00:00 15.6 12 Este 32 Este 0 -- -- 59
2019-09-14 12:00:00 14.7 14 Sudeste 28 Este 0 -- -- 64
2019-09-14 11:00:00 14.6 8 Sur 33 Sur 0 -- -- 63
2019-09-14 10:00:00 13.9 19 Sur 35 Sudoeste 0 -- -- 58
2019-09-14 09:00:00 12.8 25 Sur 38 Sur 0 -- -- 71
2019-09-14 08:00:00 12.2 22 Sudeste 36 Sudeste 0 -- -- 74
2019-09-14 07:00:00 12.8 23 Sudeste 31 Sudeste 0 -- -- 71
2019-09-14 06:00:00 -- -- -- -- -- -- -- -- --
2019-09-14 05:00:00 12.8 19 Sudeste 33 Sur 0 -- -- 79
2019-09-14 04:00:00 12.1 18 Sur 36 Sudeste 0 -- -- 83
2019-09-14 03:00:00 12.2 14 Sudeste 39 Sudeste 0 -- -- 81
2019-09-14 02:00:00 12.8 23 Sudeste 42 Sudeste 0 -- -- 80
2019-09-14 01:00:00 13.2 27 Sudeste 49 Sudeste 0 -- -- 78
2019-09-14 00:00:00 13.2 33 Sudeste 49 Sudeste 0 -- -- 76
2019-09-13 23:00:00 13.8 29 Sudeste 48 Sudeste 0 -- -- 70
2019-09-13 22:00:00 14 18 Sudeste 38 Este 0 -- -- 71
2019-09-13 21:00:00 13.6 11 Sudeste 38 Sur 0 -- -- 71
2019-09-13 20:00:00 12.9 29 Sur 47 Sur 0.2 -- -- 74
2019-09-13 19:00:00 13.5 27 Sur 53 Sudeste 0 -- -- 67
2019-09-13 18:00:00 14 32 Sudeste 59 Sudeste 0.6 -- -- 69
2019-09-13 17:00:00 12.8 28 Sudeste 52 Sur 0.2 -- -- 65
2019-09-13 16:00:00 15.2 26 Sudeste 53 Sudeste 0 -- -- 52
2019-09-13 15:00:00 15.5 18 Sudeste 40 Sur 0 -- -- 63
2019-09-13 14:00:00 16.5 15 Sudeste 38 Sur 0 -- -- 60
2019-09-13 13:00:00 16.8 7 Sur 31 Sudeste 0 -- -- 53
2019-09-13 12:00:00 16 17 Sudeste 32 Sudeste 0 -- -- 59
2019-09-13 11:00:00 15.6 12 Sur 22 Sur 0 -- -- 60
2019-09-13 10:00:00 15.4 17 Sur 25 Sur 0 -- -- 56
2019-09-13 09:00:00 14.5 19 Sur 26 Sur 0 -- -- 60
2019-09-13 08:00:00 14.3 18 Sur 23 Sudeste 0 -- -- 58
2019-09-13 07:00:00 14.4 17 Sudeste 37 Sudeste 0 -- -- 59
2019-09-13 06:00:00 14.9 19 Sudeste 29 Sudeste 0 -- -- 55
2019-09-13 05:00:00 15 18 Sudeste 28 Sudeste 0 -- -- 53
2019-09-13 04:00:00 14.9 17 Sudeste 27 Sudeste 0 -- -- 50
2019-09-13 03:00:00 15.5 22 Sudeste 29 Sudeste 0 -- -- 48
2019-09-13 02:00:00 15.5 20 Sur 28 Sudeste 0 -- -- 49
2019-09-13 01:00:00 15.6 18 Sudeste 27 Sudeste 0 -- -- 48
2019-09-13 00:00:00 14.4 14 Sudeste 19 Sudeste 0 -- -- 49
2019-09-12 23:00:00 13.7 12 Sudeste 21 Sur 0 -- -- 60
2019-09-12 22:00:00 14.7 17 Sur 22 Sudeste 0 -- -- 64
2019-09-12 21:00:00 13.9 17 Este 25 Este 0 -- -- 68
2019-09-12 20:00:00 16.8 17 Sudeste 24 Sudeste 0 -- -- 56
2019-09-12 19:00:00 17.3 16 Este 24 Este 0 -- -- 71
2019-09-12 18:00:00 18.3 12 Este 21 Este 0 -- -- 60
2019-09-12 17:00:00 18.5 6 Norte 16 Sudeste 0 -- -- 65
2019-09-12 16:00:00 17.7 7 Noroeste 13 Sur 0 -- -- 69
2019-09-12 15:00:00 16.6 6 Noroeste 17 Sudeste 0 -- -- 72
2019-09-12 14:00:00 17.3 5 Norte 15 Este 0 -- -- 64
2019-09-12 13:00:00 17.8 5 Sur 21 Sur 0 -- -- 58
2019-09-12 12:00:00 16.5 8 Sudeste 18 Sudeste 0 -- -- 57
2019-09-12 11:00:00 15 3 Oeste 17 Sudeste 0 -- -- 57
2019-09-12 10:00:00 12.6 16 Sudeste 19 Sudeste 0 -- -- 67
2019-09-12 09:00:00 11.4 17 Sudeste 21 Sudeste 0 -- -- 69
2019-09-12 08:00:00 10 19 Sudeste 24 Sudeste 0 -- -- 73
2019-09-12 07:00:00 11.6 22 Sudeste 27 Sudeste 0 -- -- 65
2019-09-12 06:00:00 10.4 19 Sudeste 23 Sudeste 0 -- -- 73
2019-09-12 05:00:00 10.5 15 Sudeste 27 Sudeste 0 -- -- 73
2019-09-12 04:00:00 5 3 Sudoeste 10 Sur 0 -- -- 100
2019-09-12 03:00:00 5.3 5 Sudeste 9 Sur 0 -- -- 100
2019-09-12 02:00:00 5.7 5 Sudeste 10 Sur 0 -- -- 100
2019-09-12 01:00:00 6.3 2 Sudoeste 9 Sur 0 -- -- 100
2019-09-12 00:00:00 6.6 3 Oeste 9 Noroeste 0 -- -- 100
2019-09-11 23:00:00 7 2 Oeste 13 Sur 0 -- -- 100
2019-09-11 22:00:00 7.1 2 Norte 12 Oeste 0 -- -- 99
2019-09-11 21:00:00 7.2 6 Norte 15 Norte 0 -- -- 100
2019-09-11 20:00:00 7.7 5 Noroeste 15 Noroeste 0 -- -- 98
2019-09-11 19:00:00 8.1 8 Noroeste 19 Noroeste 0 -- -- 95
2019-09-11 18:00:00 8.5 6 Oeste 26 Noroeste 0 -- -- 93
2019-09-11 17:00:00 8.1 10 Noroeste 22 Norte 0 -- -- 99
2019-09-11 16:00:00 8.2 11 Noroeste 23 Noroeste 0 -- -- 100
2019-09-11 15:00:00 7.5 11 Noroeste 29 Noroeste 0 -- -- 100
2019-09-11 14:00:00 6.8 13 Noroeste 27 Noroeste 0 -- -- 100
2019-09-11 13:00:00 6.6 12 Noroeste 42 Noroeste 0 -- -- 100
2019-09-11 12:00:00 6.1 16 Noroeste 39 Noroeste 0 -- -- 100
2019-09-11 11:00:00 5.8 13 Norte 34 Norte 0 -- -- 100
2019-09-11 10:00:00 5.7 19 Noroeste 41 Noroeste 0 -- -- 100
2019-09-11 09:00:00 5.7 13 Noroeste 35 Noroeste 0 -- -- 100
2019-09-11 08:00:00 5.5 15 Noroeste 35 Noroeste 0 -- -- 100
2019-09-11 07:00:00 5.8 14 Norte 53 Noroeste 0 -- -- 100
2019-09-11 06:00:00 6.1 13 Noroeste 40 Norte 0 -- -- 100
2019-09-11 05:00:00 6 14 Norte 37 Norte 0.2 -- -- 100
2019-09-11 04:00:00 5.8 17 Noroeste 38 Norte 0.2 -- -- 100
2019-09-11 03:00:00 5.6 15 Norte 36 Nordeste 0.2 -- -- 100
2019-09-11 02:00:00 5 13 Noroeste 37 Noroeste 0 -- -- 100
2019-09-11 01:00:00 4.5 17 Noroeste 36 Noroeste 0 -- -- 100
2019-09-11 00:00:00 4.3 14 Noroeste 47 Noroeste 0.2 -- -- 100
2019-09-10 23:00:00 4.8 20 Noroeste 55 Norte 0.2 -- -- 100
2019-09-10 22:00:00 5 17 Norte 51 Noroeste 0.4 -- -- 100
2019-09-10 21:00:00 5.1 19 Noroeste 39 Noroeste 0.2 -- -- 100
2019-09-10 20:00:00 5 19 Noroeste 37 Noroeste 0.4 -- -- 100
2019-09-10 19:00:00 5 18 Noroeste 43 Noroeste 6.8 -- -- 100
2019-09-10 18:00:00 4.9 23 Noroeste 51 Oeste 0 -- -- 100
2019-09-10 17:00:00 4.7 18 Noroeste 48 Noroeste 1.4 -- -- 100
2019-09-10 16:00:00 4 13 Noroeste 31 Noroeste 2.8 -- -- 100
2019-09-10 15:00:00 3.3 14 Noroeste 33 Norte 0.4 -- -- 100
2019-09-10 14:00:00 3.2 23 Noroeste 46 Noroeste 0.4 -- -- 100
2019-09-10 13:00:00 3.5 18 Noroeste 36 Norte 0 -- -- 100
2019-09-10 12:00:00 2.9 19 Noroeste 41 Noroeste 0 -- -- 100
2019-09-10 11:00:00 2.5 21 Noroeste 48 Noroeste 0.6 -- -- 100
2019-09-10 10:00:00 2.5 15 Noroeste 35 Noroeste 0.2 -- -- 100
2019-09-10 09:00:00 2.3 13 Noroeste 28 Norte 0 -- -- 100
2019-09-10 08:00:00 2.3 16 Noroeste 31 Noroeste 0 -- -- 100
2019-09-10 07:00:00 2.6 16 Noroeste 41 Noroeste 0.6 -- -- 100
2019-09-10 06:00:00 2.8 18 Noroeste 33 Noroeste 0 -- -- 100
2019-09-10 05:00:00 3.2 10 Noroeste 25 Noroeste 0.2 -- -- 100
2019-09-10 04:00:00 4.1 19 Noroeste 36 Noroeste 0.6 -- -- 100
2019-09-10 03:00:00 5.5 15 Noroeste 33 Noroeste 0 -- -- 100
2019-09-10 02:00:00 6.2 17 Noroeste 35 Noroeste 0 -- -- 100
2019-09-10 01:00:00 6.3 4 Noroeste 21 Oeste 0 -- -- 100
2019-09-10 00:00:00 6.9 6 Noroeste 10 Noroeste 0 -- -- 100
2019-09-09 23:00:00 7.4 2 Noroeste 10 Noroeste 0 -- -- 100
2019-09-09 22:00:00 8.1 4 Noroeste 17 Norte 0 -- -- 99
2019-09-09 21:00:00 9.5 2 Norte 28 Norte 0 -- -- 92
2019-09-09 20:00:00 11 5 Noroeste 17 Noroeste 0 -- -- 84
2019-09-09 19:00:00 13.4 8 Noroeste 18 Noroeste 0 -- -- 72
2019-09-09 18:00:00 15.8 11 Noroeste 40 Norte 0 -- -- 58
2019-09-09 17:00:00 16.4 25 Norte 53 Norte 0 -- -- 42
2019-09-09 16:00:00 16.9 28 Norte 53 Norte 0 -- -- 40
2019-09-09 15:00:00 16.7 24 Norte 46 Norte 0 -- -- 46
2019-09-09 14:00:00 16.7 18 Norte 40 Noroeste 0 -- -- 46
2019-09-09 13:00:00 15.3 16 Norte 35 Noroeste 0 -- -- 50
2019-09-09 12:00:00 14.8 11 Norte 30 Norte 0 -- -- 49
2019-09-09 11:00:00 14.6 16 Norte 33 Norte 0 -- -- 49
2019-09-09 10:00:00 13.6 8 Norte 16 Nordeste 0 -- -- 51
2019-09-09 09:00:00 10.9 5 Sur 13 Oeste 0 -- -- 61
2019-09-09 08:00:00 11.7 5 Oeste 14 Oeste 0 -- -- 57
2019-09-09 07:00:00 11.7 6 Sudoeste 19 Sudoeste 0 -- -- 58
2019-09-09 06:00:00 12.2 8 Oeste 21 Oeste 0 -- -- 56
2019-09-09 05:00:00 12 6 Oeste 16 Oeste 0 -- -- 59
2019-09-09 04:00:00 11.1 4 Noroeste 12 Noroeste 0 -- -- 62
2019-09-09 03:00:00 11.9 5 Sudoeste 12 Sudeste 0 -- -- 55
2019-09-09 02:00:00 10.7 4 Sur 15 Sudeste 0 -- -- 28
2019-09-09 01:00:00 9.3 6 Sudeste 11 Sur 0 -- -- 25
2019-09-09 00:00:00 10.5 5 Sudeste 14 Sudeste 0 -- -- 29
2019-09-08 23:00:00 10.5 9 Sudeste 15 Sudeste 0 -- -- 31
2019-09-08 22:00:00 8.7 3 Oeste 12 Sur 0 -- -- 83
2019-09-08 21:00:00 8.3 3 Sudeste 8 Sudeste 0 -- -- 86
2019-09-08 20:00:00 11 3 Oeste 10 Noroeste 0 -- -- 74
2019-09-08 19:00:00 12.5 8 Noroeste 14 Noroeste 0 -- -- 71
2019-09-08 18:00:00 12.8 6 Noroeste 14 Noroeste 0 -- -- 77
2019-09-08 17:00:00 13 8 Noroeste 15 Noroeste 0 -- -- 80
2019-09-08 16:00:00 11.8 10 Noroeste 17 Norte 0 -- -- 83
2019-09-08 15:00:00 11.8 8 Noroeste 17 Noroeste 0 -- -- 83
2019-09-08 14:00:00 12 8 Noroeste 14 Noroeste 0 -- -- 83
2019-09-08 13:00:00 11.2 5 Noroeste 14 Sudeste 0 -- -- 85
2019-09-08 12:00:00 10.7 6 Nordeste 14 Sudeste 0 -- -- 83
2019-09-08 11:00:00 10.2 3 Norte 6 Noroeste 0 -- -- 81
2019-09-08 10:00:00 8.7 2 Sudeste 7 Norte 0 -- -- 84
2019-09-08 09:00:00 6.3 4 Sudeste 6 Sudeste 0 -- -- 93
2019-09-08 08:00:00 6.6 7 Este 17 Este 0 -- -- 90
2019-09-08 07:00:00 7.2 10 Sudeste 21 Este 0 -- -- 86
2019-09-08 06:00:00 7.2 15 Este 23 Este 0 -- -- 91
2019-09-08 05:00:00 7.6 15 Sudeste 21 Este 0 -- -- 83
2019-09-08 04:00:00 7.1 3 Sudeste 23 Este 0 -- -- 79
2019-09-08 03:00:00 8.5 16 Sudeste 22 Este 0 -- -- 74
2019-09-08 02:00:00 7.5 8 Sudeste 15 Este 0 -- -- 81
2019-09-08 01:00:00 6.7 3 Sur 14 Este 0 -- -- 81
2019-09-08 00:00:00 7.7 10 Este 16 Sudeste 0 -- -- 74
2019-09-07 23:00:00 7.7 8 Sudeste 15 Sur 0 -- -- 81
2019-09-07 22:00:00 7.3 3 Noroeste 8 Noroeste 0 -- -- 98
2019-09-07 21:00:00 8 2 Oeste 12 Noroeste 0 -- -- 95
2019-09-07 20:00:00 9.6 8 Norte 25 Noroeste 0 -- -- 85
2019-09-07 19:00:00 11.9 11 Noroeste 27 Noroeste 0 -- -- 68
2019-09-07 18:00:00 12.6 12 Noroeste 27 Noroeste 0 -- -- 62
2019-09-07 17:00:00 12.7 7 Noroeste 19 Sudeste 0 -- -- 60
2019-09-07 16:00:00 12.6 9 Nordeste 24 Este 0 -- -- 54
2019-09-07 15:00:00 12.1 9 Noroeste 19 Noroeste 0 -- -- 51
2019-09-07 14:00:00 11.8 8 Sur 22 Sur 0 -- -- 60
2019-09-07 13:00:00 9.1 4 Noroeste 13 Noroeste 0 -- -- 76
2019-09-07 12:00:00 7 8 Noroeste 18 Norte 0 -- -- 88
2019-09-07 11:00:00 5.8 4 Norte 10 Noroeste 0 -- -- 90
2019-09-07 10:00:00 4.8 0 Calma 27 Sur 0 -- -- 91
2019-09-07 09:00:00 3.1 2 Este 20 Sudoeste 0 -- -- 97
2019-09-07 08:00:00 5.6 8 Sur 15 Sudeste 0 -- -- 65
2019-09-07 07:00:00 5.3 11 Sudeste 16 Sudeste 0 -- -- 66
2019-09-07 06:00:00 3.5 6 Este 13 Este 0 -- -- 92
2019-09-07 05:00:00 4.3 3 Norte 13 Noroeste 0 -- -- 99
2019-09-07 04:00:00 4.5 4 Noroeste 13 Noroeste 0 -- -- 92
2019-09-07 03:00:00 4.6 4 Sudoeste 13 Sur 0 -- -- 92
2019-09-07 02:00:00 4.5 3 Oeste 12 Sudeste 0 -- -- 92
2019-09-07 01:00:00 4.5 2 Oeste 13 Sudeste 0 -- -- 91
2019-09-07 00:00:00 4.3 4 Sur 12 Sur 0 -- -- 90
2019-09-06 23:00:00 4.6 5 Noroeste 13 Noroeste 0 -- -- 92
2019-09-06 22:00:00 5.3 8 Noroeste 14 Noroeste 0 -- -- 89
2019-09-06 21:00:00 6 6 Noroeste 18 Noroeste 0 -- -- 88
2019-09-06 20:00:00 7.6 10 Noroeste 22 Noroeste 0 -- -- 81
2019-09-06 19:00:00 9.4 14 Noroeste 28 Noroeste 0 -- -- 72
2019-09-06 18:00:00 10.2 14 Noroeste 30 Noroeste 0 -- -- 70
2019-09-06 17:00:00 10.1 15 Noroeste 26 Noroeste 0 -- -- 63
2019-09-06 16:00:00 10 15 Noroeste 32 Norte 0 -- -- 66
2019-09-06 15:00:00 9.4 11 Noroeste 26 Noroeste 0 -- -- 72
2019-09-06 14:00:00 8.4 12 Noroeste 26 Noroeste 0 -- -- 75
2019-09-06 13:00:00 7.4 8 Noroeste 32 Noroeste 0 -- -- 80
2019-09-06 12:00:00 6.3 8 Noroeste 25 Noroeste 0 -- -- 89
2019-09-06 11:00:00 5 12 Oeste 33 Noroeste 0 -- -- 98
2019-09-06 10:00:00 4.7 8 Noroeste 32 Noroeste 0 -- -- 99
2019-09-06 09:00:00 5 10 Noroeste 23 Oeste 0 -- -- 91
2019-09-06 08:00:00 4.6 9 Noroeste 19 Oeste 0 -- -- 91
2019-09-06 07:00:00 4.3 5 Oeste 16 Noroeste 0 -- -- 89
2019-09-06 06:00:00 4 11 Noroeste 20 Oeste 0 -- -- 92
2019-09-06 05:00:00 4.2 5 Oeste 18 Oeste 0 -- -- 91
2019-09-06 04:00:00 4.6 12 Noroeste 20 Noroeste 0 -- -- 89
2019-09-06 03:00:00 4.2 5 Noroeste 19 Noroeste 0 -- -- 98
2019-09-06 02:00:00 4.9 6 Noroeste 22 Noroeste 0 -- -- 98
2019-09-06 01:00:00 4.9 7 Noroeste 28 Oeste 0 -- -- 95
2019-09-06 00:00:00 5.1 7 Sudoeste 28 Noroeste 0 -- -- 86
2019-09-05 23:00:00 5.2 9 Noroeste 27 Noroeste 0 -- -- 87
2019-09-05 22:00:00 5.7 8 Noroeste 24 Noroeste 0 -- -- 92
2019-09-05 21:00:00 6.3 9 Norte 23 Noroeste 0 -- -- 92
2019-09-05 20:00:00 7 10 Noroeste 23 Noroeste 0 -- -- 92
2019-09-05 19:00:00 7.3 9 Noroeste 28 Norte 0 -- -- 89
2019-09-05 18:00:00 7.5 13 Noroeste 29 Noroeste 0 -- -- 91
2019-09-05 17:00:00 8 8 Noroeste 28 Noroeste 0 -- -- 94
2019-09-05 16:00:00 9.1 13 Noroeste 30 Noroeste 0 -- -- 79
2019-09-05 15:00:00 8.3 15 Noroeste 27 Noroeste 0 -- -- 81
2019-09-05 14:00:00 7.7 15 Noroeste 28 Noroeste 0 -- -- 82
2019-09-05 13:00:00 6.5 9 Noroeste 43 Noroeste 0 -- -- 98
2019-09-05 12:00:00 6.4 6 Noroeste 27 Oeste 0 -- -- 97
2019-09-05 11:00:00 5.6 6 Noroeste 26 Oeste 0 -- -- 100
2019-09-05 10:00:00 5.1 10 Noroeste 27 Noroeste 0 -- -- 100
2019-09-05 09:00:00 5.1 13 Noroeste 30 Norte 0 -- -- 100
2019-09-05 08:00:00 6 14 Noroeste 35 Noroeste 0.2 -- -- 100
2019-09-05 07:00:00 7.3 16 Norte 34 Norte 1 -- -- 100
2019-09-05 06:00:00 7.9 10 Noroeste 23 Noroeste 0.6 -- -- 100
2019-09-05 05:00:00 8.1 5 Noroeste 17 Este 0.8 -- -- 100
2019-09-05 04:00:00 7.6 6 Sudeste 22 Este 0 -- -- 99
2019-09-05 03:00:00 7.7 5 Este 28 Este 0 -- -- 79
2019-09-05 02:00:00 8.7 9 Este 22 Este 0 -- -- 33
2019-09-05 01:00:00 6.9 8 Noroeste 21 Noroeste 0 -- -- 95
2019-09-05 00:00:00 7.4 6 Noroeste 19 Noroeste 0 -- -- 97
2019-09-04 23:00:00 8.5 5 Norte 14 Noroeste 0 -- -- 95
2019-09-04 22:00:00 9.2 4 Noroeste 15 Noroeste 0 -- -- 95
2019-09-04 21:00:00 9.9 8 Noroeste 18 Norte 0 -- -- 90
2019-09-04 20:00:00 11.2 10 Norte 29 Oeste 0 -- -- 83
2019-09-04 19:00:00 13.5 14 Noroeste 29 Oeste 0 -- -- 75
2019-09-04 18:00:00 15.1 15 Noroeste 27 Noroeste 0 -- -- 66
2019-09-04 17:00:00 16.4 14 Noroeste 27 Oeste 0 -- -- 56
2019-09-04 16:00:00 16.6 12 Noroeste 22 Noroeste 0 -- -- 53
2019-09-04 15:00:00 16 8 Noroeste 17 Noroeste 0 -- -- 52
2019-09-04 14:00:00 16.3 8 Noroeste 13 Noroeste 0 -- -- 50
2019-09-04 13:00:00 15.9 7 Noroeste 10 Noroeste 0 -- -- 46
2019-09-04 12:00:00 15.2 4 Noroeste 8 Noroeste 0 -- -- 43
2019-09-04 11:00:00 17 2 Noroeste 9 Sudeste 0 -- -- 31
2019-09-04 10:00:00 16.3 2 Sudoeste 10 Sudeste 0 -- -- 23
2019-09-04 09:00:00 13 5 Sur 13 Sudeste 0 -- -- 27
2019-09-04 08:00:00 12.3 8 Sudeste 17 Sudeste 0 -- -- 38
2019-09-04 07:00:00 12.9 14 Sudeste 17 Sudeste 0 -- -- 31
2019-09-04 06:00:00 14.5 11 Sudeste 15 Sudeste 0 -- -- 23
2019-09-04 05:00:00 13.8 6 Este 21 Sudoeste 0 -- -- 22
2019-09-04 04:00:00 14.4 9 Sudeste 15 Sur 0 -- -- 21
2019-09-04 03:00:00 14.4 9 Este 15 Este 0 -- -- 26
2019-09-04 02:00:00 14.5 9 Sudeste 13 Este 0 -- -- 24
2019-09-04 01:00:00 14.3 4 Sudeste 11 Este 0 -- -- 38
2019-09-04 00:00:00 15.5 4 Sudeste 13 Sur 0 -- -- 27
2019-09-03 23:00:00 15.8 7 Sudeste 15 Sudeste 0 -- -- 36
2019-09-03 22:00:00 13.1 5 Este 9 Este 0 -- -- 60
2019-09-03 21:00:00 12.8 3 Sudeste 6 Sur 0 -- -- 66
2019-09-03 20:00:00 17.4 3 Sudoeste 8 Noroeste 0 -- -- 54
2019-09-03 19:00:00 17.7 6 Noroeste 10 Noroeste 0 -- -- 50
2019-09-03 18:00:00 18.2 6 Noroeste 10 Noroeste 0 -- -- 51
2019-09-03 17:00:00 18.6 7 Noroeste 11 Noroeste 0 -- -- 53
2019-09-03 16:00:00 18.1 6 Noroeste 12 Noroeste 0 -- -- 59
2019-09-03 15:00:00 16.9 6 Noroeste 12 Noroeste 0 -- -- 62
2019-09-03 14:00:00 16.4 3 Noroeste 9 Noroeste 0 -- -- 57
2019-09-03 13:00:00 15.8 3 Noroeste 9 Norte 0 -- -- 48
2019-09-03 12:00:00 14.7 3 Noroeste 5 Norte 0 -- -- 42
2019-09-03 11:00:00 16.9 0 Calma 7 Este 0 -- -- 29
2019-09-03 10:00:00 12.1 6 Este 13 Este 0 -- -- 41
2019-09-03 09:00:00 10.9 8 Este 11 Este 0 -- -- 37
2019-09-03 08:00:00 9 6 Este 20 Este 0 -- -- 35
2019-09-03 07:00:00 10.6 19 Este 23 Este 0 -- -- 22
2019-09-03 06:00:00 9 10 Sudeste 16 Este 0 -- -- 30
2019-09-03 05:00:00 8.3 4 Sudeste 19 Este 0 -- -- 43
2019-09-03 04:00:00 8.2 2 Sudeste 11 Sudeste 0 -- -- 48
2019-09-03 03:00:00 7.5 3 Noroeste 17 Este 0 -- -- 76
2019-09-03 02:00:00 6.2 3 Sur 9 Nordeste 0 -- -- 76
2019-09-03 01:00:00 4.9 2 Sudeste 8 Sudeste 0 -- -- 99
2019-09-03 00:00:00 6.1 4 Sudeste 10 Sudeste 0 -- -- 89
2019-09-02 23:00:00 7.3 3 Este 7 Este 0 -- -- 96
2019-09-02 22:00:00 7.8 3 Noroeste 8 Oeste 0 -- -- 96
2019-09-02 21:00:00 8.7 5 Noroeste 8 Noroeste 0 -- -- 90
2019-09-02 20:00:00 11.1 5 Noroeste 10 Noroeste 0 -- -- 77
2019-09-02 19:00:00 11.9 8 Noroeste 14 Noroeste 0 -- -- 77
2019-09-02 18:00:00 12.8 6 Noroeste 15 Noroeste 0 -- -- 75
2019-09-02 17:00:00 12.9 6 Noroeste 15 Noroeste 0 -- -- 71
2019-09-02 16:00:00 12.2 7 Noroeste 16 Noroeste 0 -- -- 74
2019-09-02 15:00:00 11.3 6 Noroeste 13 Norte 0 -- -- 90
2019-09-02 14:00:00 9 6 Noroeste 12 Noroeste 0 -- -- 100
2019-09-02 13:00:00 7.7 5 Noroeste 10 Noroeste 0 -- -- 100
2019-09-02 12:00:00 6.6 7 Noroeste 16 Este 0 -- -- 100
2019-09-02 11:00:00 5.6 3 Noroeste 10 Noroeste 0 -- -- 100
2019-09-02 10:00:00 5.4 5 Sudoeste 17 Oeste 0 -- -- 100
2019-09-02 09:00:00 5.2 6 Noroeste 13 Noroeste 0.2 -- -- 100
2019-09-02 08:00:00 5.4 6 Norte 11 Norte 0 -- -- 100
2019-09-02 07:00:00 5.5 6 Sudeste 13 Oeste 0.2 -- -- 100
2019-09-02 06:00:00 6.1 8 Noroeste 13 Noroeste 0 -- -- 100
2019-09-02 05:00:00 6.1 5 Noroeste 13 Noroeste 0.2 -- -- 100
2019-09-02 04:00:00 6.4 7 Noroeste 17 Oeste 0.4 -- -- 100
2019-09-02 03:00:00 7.4 9 Noroeste 14 Oeste 0.6 -- -- 100
2019-09-02 02:00:00 8.1 8 Noroeste 17 Noroeste 0.8 -- -- 100
2019-09-02 01:00:00 9 11 Noroeste 20 Noroeste 0.6 -- -- 100
2019-09-02 00:00:00 9.5 10 Noroeste 19 Noroeste 0.6 -- -- 100
2019-09-01 23:00:00 9.8 8 Noroeste 17 Oeste 0.8 -- -- 100
2019-09-01 22:00:00 10 10 Noroeste 15 Noroeste 0.8 -- -- 100
2019-09-01 21:00:00 10.4 8 Norte 18 Norte 0 -- -- 100
2019-09-01 20:00:00 10.5 4 Noroeste 14 Oeste 0 -- -- 100
2019-09-01 19:00:00 10.6 6 Noroeste 17 Noroeste 0 -- -- 100
2019-09-01 18:00:00 11.2 8 Noroeste 12 Noroeste 0.2 -- -- 100
2019-09-01 17:00:00 11.4 7 Noroeste 14 Noroeste 0 -- -- 100
2019-09-01 16:00:00 11.6 5 Noroeste 7 Oeste 0 -- -- 100
2019-09-01 15:00:00 11.6 5 Noroeste 9 Noroeste 0 -- -- 100
2019-09-01 14:00:00 11.5 5 Noroeste 10 Noroeste 0 -- -- 100
2019-09-01 13:00:00 11.9 2 Noroeste 12 Norte 0 -- -- 100
2019-09-01 12:00:00 11.6 5 Noroeste 10 Noroeste 0 -- -- 100
2019-09-01 11:00:00 11.5 4 Noroeste 9 Noroeste 0 -- -- 100
2019-09-01 10:00:00 11.7 5 Noroeste 9 Noroeste 0 -- -- 100
2019-09-01 09:00:00 11.1 2 Este 13 Noroeste 0 -- -- 100
2019-09-01 08:00:00 11.3 4 Nordeste 12 Sudoeste 0 -- -- 98
2019-09-01 07:00:00 11.2 4 Noroeste 15 Sudoeste 0 -- -- 97
2019-09-01 06:00:00 13.3 6 Sudoeste 14 Sur 0 -- -- 87
2019-09-01 05:00:00 12.1 9 Sudeste 21 Noroeste 0 -- -- 97
2019-09-01 04:00:00 16.2 9 Sudoeste 22 Sur 0 -- -- 82
2019-09-01 03:00:00 11.8 3 Este 11 Sudeste 0.2 -- -- 100
2019-09-01 02:00:00 12.5 3 Noroeste 7 Noroeste 0 -- -- 100
2019-09-01 01:00:00 12.8 4 Noroeste 8 Norte 0 -- -- 100
2019-09-01 00:00:00 13 0 Calma 19 Noroeste 0 -- -- 100
2019-08-31 23:00:00 15.4 18 Este 36 Este 0 -- -- 89
2019-08-31 22:00:00 13.8 5 Sur 28 Este 0 -- -- 99
2019-08-31 21:00:00 15 0 Calma 15 Este 0 -- -- 95
2019-08-31 20:00:00 18.4 7 Sudeste 14 Este 0 -- -- 62
2019-08-31 19:00:00 21.7 3 Sur 7 Este 0 -- -- 51
2019-08-31 18:00:00 21 3 Este 8 Oeste 0 -- -- 50
2019-08-31 17:00:00 21.9 0 Calma 5 Oeste 0 -- -- 46
2019-08-31 16:00:00 21.5 0 Calma 20 Noroeste 0 -- -- 47
2019-08-31 15:00:00 22.7 14 Noroeste 26 Noroeste 0 -- -- 42
2019-08-31 14:00:00 21.3 14 Noroeste 23 Noroeste 0 -- -- 52
2019-08-31 13:00:00 20.7 3 Noroeste 18 Norte 0 -- -- 48
2019-08-31 12:00:00 21.7 9 Norte 16 Norte 0 -- -- 39
2019-08-31 11:00:00 21.6 7 Norte 15 Sudeste 0 -- -- 37
2019-08-31 10:00:00 20 6 Sudeste 14 Sur 0 -- -- 41
2019-08-31 09:00:00 18.1 12 Sur 21 Sur 0 -- -- 45
2019-08-31 08:00:00 17.7 12 Sur 22 Sur 0 -- -- 47
2019-08-31 07:00:00 17.6 15 Sur 23 Sudoeste 0 -- -- 47
2019-08-31 06:00:00 17.8 13 Sur 22 Sur 0 -- -- 48
2019-08-31 05:00:00 18.2 14 Sur 20 Sur 0 -- -- 46
2019-08-31 04:00:00 18.5 14 Sur 23 Sudoeste 0 -- -- 45
2019-08-31 03:00:00 19.2 16 Sur 26 Sur 0 -- -- 43
2019-08-31 02:00:00 17.8 14 Sur 35 Sur 0 -- -- 50
2019-08-31 01:00:00 18.7 29 Sur 39 Sur 0 -- -- 45
2019-08-31 00:00:00 19.4 23 Sur 31 Sur 0 -- -- 44
2019-08-30 23:00:00 20.4 17 Sur 28 Sudeste 0 -- -- 43
2019-08-30 22:00:00 20.4 15 Sudeste 26 Sudeste 0 -- -- 45
2019-08-30 21:00:00 20.4 16 Sur 33 Sur 0 -- -- 43
2019-08-30 20:00:00 21 15 Sudeste 22 Sudeste 0 -- -- 48
2019-08-30 19:00:00 23.3 5 Norte 8 Oeste 0 -- -- 40
2019-08-30 18:00:00 23 7 Sur 37 Sur 0 -- -- 39
2019-08-30 17:00:00 20.3 25 Sudeste 40 Sudeste 0 -- -- 54
2019-08-30 16:00:00 21.2 7 Sudeste 26 Sur 0 -- -- 58
2019-08-30 15:00:00 22.7 11 Noroeste 27 Norte 0 -- -- 47
2019-08-30 14:00:00 23.3 10 Noroeste 17 Noroeste 0 -- -- 48
2019-08-30 13:00:00 23.3 9 Sudoeste 29 Sur 0 -- -- 38
2019-08-30 12:00:00 23.1 9 Sudeste 21 Sudeste 0 -- -- 39
2019-08-30 11:00:00 21.7 7 Norte 19 Este 0 -- -- 41
2019-08-30 10:00:00 20.5 7 Nordeste 22 Sur 0 -- -- 42
2019-08-30 09:00:00 19.1 4 Noroeste 15 Sur 0 -- -- 44
2019-08-30 08:00:00 17.5 12 Sur 20 Sur 0 -- -- 51
2019-08-30 07:00:00 17.5 18 Sur 24 Sur 0 -- -- 52
2019-08-30 06:00:00 17.4 22 Sur 28 Sur 0 -- -- 52
2019-08-30 05:00:00 18.1 22 Sur 27 Sur 0 -- -- 49
2019-08-30 04:00:00 18.1 18 Sur 26 Sur 0 -- -- 49
2019-08-30 03:00:00 18.4 21 Sur 34 Sudeste 0 -- -- 48
2019-08-30 02:00:00 18.2 24 Sudeste 32 Sudeste 0 -- -- 52
2019-08-30 01:00:00 18.8 26 Sur 31 Sur 0 -- -- 51
2019-08-30 00:00:00 19 13 Sur 25 Sudeste 0 -- -- 52
2019-08-29 23:00:00 17.7 21 Sudeste 23 Sur 0 -- -- 57
2019-08-29 22:00:00 18.4 16 Sudeste 21 Sudeste 0 -- -- 59
2019-08-29 21:00:00 19.2 13 Sudeste 24 Este 0 -- -- 57
2019-08-29 20:00:00 20.4 13 Sudeste 18 Sudeste 0 -- -- 56
2019-08-29 19:00:00 21 13 Este 19 Este 0 -- -- 61
2019-08-29 18:00:00 20 10 Este 21 Este 0 -- -- 66
2019-08-29 17:00:00 21.4 9 Este 24 Sur 0 -- -- 59
2019-08-29 16:00:00 20.2 6 Sur 19 Este 0 -- -- 55
2019-08-29 15:00:00 22.2 8 Noroeste 26 Norte 0 -- -- 59
2019-08-29 14:00:00 21.9 8 Noroeste 18 Noroeste 0 -- -- 60
2019-08-29 13:00:00 21.2 11 Sudeste 20 Sudeste 0 -- -- 46
2019-08-29 12:00:00 21.7 4 Nordeste 21 Oeste 0 -- -- 46
2019-08-29 11:00:00 20.3 6 Sudeste 14 Sudeste 0 -- -- 51
2019-08-29 10:00:00 18.7 6 Este 14 Norte 0 -- -- 55
2019-08-29 09:00:00 17.3 5 Norte 13 Sur 0 -- -- 58
2019-08-29 08:00:00 17.2 5 Este 16 Este 0 -- -- 57
2019-08-29 07:00:00 17.8 6 Sudeste 22 Sur 0 -- -- 55
2019-08-29 06:00:00 17.9 16 Sur 24 Sur 0 -- -- 54
2019-08-29 05:00:00 17.9 8 Sur 28 Sur 0 -- -- 54
2019-08-29 04:00:00 16.7 18 Sur 27 Sur 0 -- -- 61
2019-08-29 03:00:00 16.6 21 Sur 26 Sudeste 0 -- -- 67
2019-08-29 02:00:00 15.4 22 Sudeste 24 Sudeste 0 -- -- 73
2019-08-29 01:00:00 15.5 18 Sudeste 25 Sudeste 0 -- -- 72
2019-08-29 00:00:00 16.5 21 Sur 24 Sudeste 0 -- -- 67
2019-08-28 23:00:00 16.2 14 Sudeste 20 Este 0 -- -- 67
2019-08-28 22:00:00 16.2 10 Sudeste 18 Este 0 -- -- 69
2019-08-28 21:00:00 16.7 10 Este 14 Noroeste 0 -- -- 68
2019-08-28 20:00:00 19.7 3 Oeste 10 Oeste 0 -- -- 53
2019-08-28 19:00:00 20.8 7 Noroeste 17 Noroeste 0 -- -- 51
2019-08-28 18:00:00 21.5 10 Noroeste 18 Noroeste 0 -- -- 49
2019-08-28 17:00:00 20.1 6 Noroeste 22 Noroeste 0 -- -- 54
2019-08-28 16:00:00 19.8 3 Oeste 8 Norte 0 -- -- 56
2019-08-28 15:00:00 19.4 4 Noroeste 14 Noroeste 0 -- -- 58
2019-08-28 14:00:00 19.5 8 Noroeste 17 Noroeste 0 -- -- 57
2019-08-28 13:00:00 18.8 5 Noroeste 15 Norte 0 -- -- 55
2019-08-28 12:00:00 18.2 5 Noroeste 11 Norte 0 -- -- 53
2019-08-28 11:00:00 17.8 2 Norte 10 Norte 0 -- -- 58
2019-08-28 10:00:00 15.5 5 Nordeste 12 Este 0 -- -- 65
2019-08-28 09:00:00 13.1 7 Este 14 Sudeste 0 -- -- 73
2019-08-28 08:00:00 12.8 10 Sudeste 17 Sudeste 0 -- -- 74
2019-08-28 07:00:00 12.7 10 Sur 16 Sur 0 -- -- 74
2019-08-28 06:00:00 13.5 12 Sur 18 Sudoeste 0 -- -- 72
2019-08-28 05:00:00 13.7 12 Sudoeste 18 Sudoeste 0 -- -- 72
2019-08-28 04:00:00 13.8 9 Sudoeste 18 Sudoeste 0 -- -- 72
2019-08-28 03:00:00 14.2 14 Sudoeste 18 Sur 0 -- -- 73
2019-08-28 02:00:00 12.9 9 Sudeste 14 Sudeste 0 -- -- 76
2019-08-28 01:00:00 13.4 10 Sur 22 Sur 0 -- -- 78
2019-08-28 00:00:00 13.6 10 Sudeste 18 Sudeste 0 -- -- 81
2019-08-27 23:00:00 13.3 14 Sudeste 19 Este 0 -- -- 83
2019-08-27 22:00:00 13.5 12 Sudeste 15 Sudeste 0 -- -- 81
2019-08-27 21:00:00 14.4 7 Sudeste 21 Sudeste 0 -- -- 79
2019-08-27 20:00:00 16.2 9 Sudeste 16 Sudeste 0 -- -- 73
2019-08-27 19:00:00 16.9 5 Noroeste 14 Este 0 -- -- 69
2019-08-27 18:00:00 15.4 7 Este 12 Este 0 -- -- 78
2019-08-27 17:00:00 17 4 Oeste 15 Este 0 -- -- 65
2019-08-27 16:00:00 15.2 6 Este 18 Nordeste 0 -- -- 72
2019-08-27 15:00:00 15.2 9 Este 22 Este 0 -- -- 79
2019-08-27 14:00:00 13.9 11 Sudeste 18 Sudeste 0 -- -- 84
2019-08-27 13:00:00 14.1 4 Noroeste 10 Noroeste 0 -- -- 87
2019-08-27 12:00:00 13.9 5 Noroeste 8 Noroeste 0 -- -- 79
2019-08-27 11:00:00 14.4 2 Noroeste 6 Noroeste 0 -- -- 67
2019-08-27 10:00:00 12.7 3 Norte 28 Sur 0 -- -- 74
2019-08-27 09:00:00 12.4 18 Sudeste 27 Sudeste 0 -- -- 69
2019-08-27 08:00:00 11.6 7 Sudeste 26 Sur 0 -- -- 71
2019-08-27 07:00:00 12.3 12 Sur 26 Sudeste 0 -- -- 71
2019-08-27 06:00:00 12.8 24 Sudeste 30 Sudeste 0 -- -- 66
2019-08-27 05:00:00 12.9 23 Sudeste 32 Sudeste 0 -- -- 69
2019-08-27 04:00:00 12.4 28 Sudeste 36 Sudeste 0 -- -- 73
2019-08-27 03:00:00 12.8 23 Sudeste 28 Sudeste 0 -- -- 70
2019-08-27 02:00:00 12.3 17 Este 32 Sudeste 0 -- -- 72
2019-08-27 01:00:00 13 8 Sur 17 Sudeste 0 -- -- 69
2019-08-27 00:00:00 12.4 5 Sur 19 Sudeste 0 -- -- 82
2019-08-26 23:00:00 12.1 6 Nordeste 22 Sudeste 0 -- -- 82
2019-08-26 22:00:00 12.3 15 Sudeste 37 Sur 0 -- -- 76
2019-08-26 21:00:00 15.3 15 Sudeste 28 Sudeste 0.4 -- -- 51
2019-08-26 20:00:00 13.1 17 Nordeste 40 Nordeste 0.2 -- -- 68
2019-08-26 19:00:00 13.4 8 Sudeste 19 Sur 4.2 -- -- 82
2019-08-26 18:00:00 16.2 6 Noroeste 22 Sur 0 -- -- 66
2019-08-26 17:00:00 18.2 5 Sudoeste 18 Este 0 -- -- 50
2019-08-26 16:00:00 18.5 20 Sudeste 39 Sudeste 1 -- -- 47
2019-08-26 15:00:00 16 17 Este 39 Sur 1.8 -- -- 58
2019-08-26 14:00:00 20 14 Este 30 Sudeste 0 -- -- 42
2019-08-26 13:00:00 18 14 Sudeste 30 Sudeste 0 -- -- 54
2019-08-26 12:00:00 16.7 3 Este 32 Sudeste 0 -- -- 50
2019-08-26 11:00:00 16.1 10 Sudoeste 43 Sur 0 -- -- 48
2019-08-26 10:00:00 16.2 7 Noroeste 21 Sur 0 -- -- 48
2019-08-26 09:00:00 14.8 5 Nordeste 26 Sudeste 0 -- -- 55
2019-08-26 08:00:00 15.5 9 Sudeste 32 Este 0 -- -- 51
2019-08-26 07:00:00 15.5 7 Sudeste 17 Sudeste 0 -- -- 47
2019-08-26 06:00:00 16.4 7 Norte 37 Sudeste 0 -- -- 54
2019-08-26 05:00:00 17.1 18 Sur 42 Sur 0 -- -- 45
2019-08-26 04:00:00 17.3 12 Sur 34 Sudoeste 0 -- -- 43
2019-08-26 03:00:00 17.8 14 Sur 39 Sur 0 -- -- 44
2019-08-26 02:00:00 17.5 7 Sur 39 Sudeste 0 -- -- 53
2019-08-26 01:00:00 18.5 16 Sudeste 39 Sudeste 0 -- -- 50
2019-08-26 00:00:00 17.8 20 Sudeste 34 Sur 0 -- -- 51
2019-08-25 23:00:00 18.1 19 Sur 28 Sudeste 0 -- -- 47
2019-08-25 22:00:00 18.2 18 Sur 24 Sur 0 -- -- 47
2019-08-25 21:00:00 15.6 10 Noroeste 29 Sur 0 -- -- 85
2019-08-25 20:00:00 21.1 17 Sur 29 Sur 0 -- -- 41
2019-08-25 19:00:00 22 16 Sur 45 Sur 0 -- -- 40
2019-08-25 18:00:00 23.3 13 Sudoeste 31 Sudeste 0 -- -- 37
2019-08-25 17:00:00 23.1 16 Sur 33 Sudeste 0 -- -- 48
2019-08-25 16:00:00 22.2 9 Sudeste 18 Sudeste 0 -- -- 51
2019-08-25 15:00:00 21.7 8 Este 19 Oeste 0 -- -- 51
2019-08-25 14:00:00 21.3 2 Norte 22 Sudeste 0 -- -- 52
2019-08-25 13:00:00 23 10 Sudeste 24 Este 0 -- -- 35
2019-08-25 12:00:00 22.6 9 Este 29 Sudeste 0 -- -- 35
2019-08-25 11:00:00 21.6 14 Sudeste 33 Sudeste 0 -- -- 36
2019-08-25 10:00:00 19.8 25 Sudeste 43 Sudeste 0 -- -- 39
2019-08-25 09:00:00 18.8 24 Sudeste 40 Sur 0 -- -- 39
2019-08-25 08:00:00 18.7 29 Sur 40 Sur 0 -- -- 39
2019-08-25 07:00:00 18.7 30 Sur 42 Sur 0 -- -- 36
2019-08-25 06:00:00 18.7 31 Sur 41 Sur 0 -- -- 33
2019-08-25 05:00:00 18.7 30 Sur 42 Sur 0 -- -- 35
2019-08-25 04:00:00 18.9 28 Sur 39 Sur 0 -- -- 35
2019-08-25 03:00:00 19.3 25 Sur 35 Sur 0 -- -- 35
2019-08-25 02:00:00 19.4 26 Sur 36 Sur 0 -- -- 36
2019-08-25 01:00:00 19.4 26 Sur 32 Sur 0 -- -- 39
2019-08-25 00:00:00 18.4 23 Sudeste 26 Sur 0 -- -- 46
2019-08-24 23:00:00 19 21 Sudeste 31 Sur 0 -- -- 46
2019-08-24 22:00:00 20 24 Sur 32 Sur 0 -- -- 43
2019-08-24 21:00:00 20.3 18 Sudeste 24 Sudeste 0 -- -- 44
2019-08-24 20:00:00 20.7 12 Sudeste 22 Sur 0 -- -- 40
2019-08-24 19:00:00 22.6 10 Sur 24 Sur 0 -- -- 33
2019-08-24 18:00:00 23.2 8 Sur 26 Sudeste 0 -- -- 33
2019-08-24 17:00:00 22.7 14 Sur 31 Oeste 0 -- -- 37
2019-08-24 16:00:00 22.8 14 Noroeste 28 Noroeste 0 -- -- 38
2019-08-24 15:00:00 22.6 12 Noroeste 21 Noroeste 0 -- -- 40
2019-08-24 14:00:00 21.8 7 Noroeste 16 Noroeste 0 -- -- 44
2019-08-24 13:00:00 21.6 5 Noroeste 9 Norte 0 -- -- 40
2019-08-24 12:00:00 20.5 5 Noroeste 8 Noroeste 0 -- -- 44
2019-08-24 11:00:00 20.3 4 Noroeste 8 Este 0 -- -- 41
2019-08-24 10:00:00 17.7 5 Sudeste 12 Este 0 -- -- 46
2019-08-24 09:00:00 17 10 Este 18 Sur 0 -- -- 43
2019-08-24 08:00:00 16.2 13 Sur 23 Sudeste 0 -- -- 46
2019-08-24 07:00:00 17 21 Sur 28 Sudeste 0 -- -- 43
2019-08-24 06:00:00 17.2 26 Sudeste 30 Sudeste 0 -- -- 43
2019-08-24 05:00:00 17.2 27 Sudeste 31 Sur 0 -- -- 45
2019-08-24 04:00:00 17.1 26 Sudeste 30 Sur 0 -- -- 49
2019-08-24 03:00:00 16.8 24 Sudeste 29 Sudeste 0 -- -- 49
2019-08-24 02:00:00 17.7 23 Sudeste 28 Sur 0 -- -- 47
2019-08-24 01:00:00 16.4 18 Sudeste 21 Sudeste 0 -- -- 57
2019-08-24 00:00:00 16.8 18 Sudeste 20 Sudeste 0 -- -- 55
2019-08-23 23:00:00 17.2 11 Sudeste 18 Sudeste 0 -- -- 49
2019-08-23 22:00:00 17.9 12 Sudeste 17 Este 0 -- -- 46
2019-08-23 21:00:00 19 9 Sudeste 17 Este 0 -- -- 45
2019-08-23 20:00:00 21.3 9 Este 17 Sudeste 0 -- -- 38
2019-08-23 19:00:00 22.3 6 Sudeste 17 Este 0 -- -- 39
2019-08-23 18:00:00 22 10 Este 19 Este 0 -- -- 40
2019-08-23 17:00:00 21.7 11 Este 23 Oeste 0 -- -- 42
2019-08-23 16:00:00 22.3 8 Noroeste 18 Noroeste 0 -- -- 43
2019-08-23 15:00:00 21.7 9 Noroeste 17 Noroeste 0 -- -- 43
2019-08-23 14:00:00 20.7 8 Noroeste 15 Noroeste 0 -- -- 44
2019-08-23 13:00:00 20.9 7 Noroeste 15 Norte 0 -- -- 42
2019-08-23 12:00:00 20.7 7 Nordeste 14 Sudeste 0 -- -- 32
2019-08-23 11:00:00 20.3 7 Sudeste 19 Sur 0 -- -- 34
2019-08-23 10:00:00 18.7 5 Este 10 Este 0 -- -- 35
2019-08-23 09:00:00 16.9 5 Sur 14 Sur 0 -- -- 36
2019-08-23 08:00:00 14.4 10 Sur 15 Sudoeste 0 -- -- 44
2019-08-23 07:00:00 14.7 10 Sur 18 Sur 0 -- -- 40
2019-08-23 06:00:00 15.2 13 Sur 24 Sur 0 -- -- 39
2019-08-23 05:00:00 15.8 14 Sudeste 20 Sudeste 0 -- -- 38
2019-08-23 04:00:00 15.1 12 Sudeste 17 Sur 0 -- -- 38
2019-08-23 03:00:00 14.9 13 Sur 20 Sur 0 -- -- 44
2019-08-23 02:00:00 14.5 13 Sur 18 Sur 0 -- -- 48
2019-08-23 01:00:00 15.2 8 Sur 12 Sudoeste 0 -- -- 51
2019-08-23 00:00:00 14.8 3 Sur 9 Este 0 -- -- 51
2019-08-22 23:00:00 13.8 4 Sudeste 14 Este 0 -- -- 51
2019-08-22 22:00:00 13.6 3 Este 8 Este 0 -- -- 50
2019-08-22 21:00:00 15.4 2 Sudoeste 9 Este 0 -- -- 51
2019-08-22 20:00:00 17.7 3 Noroeste 17 Este 0 -- -- 40
2019-08-22 19:00:00 18.6 7 Nordeste 17 Este 0 -- -- 33
2019-08-22 18:00:00 19 6 Noroeste 13 Noroeste 0 -- -- 37
2019-08-22 17:00:00 19 8 Noroeste 15 Noroeste 0 -- -- 39
2019-08-22 16:00:00 18.9 7 Noroeste 16 Noroeste 0 -- -- 43
2019-08-22 15:00:00 18.2 7 Noroeste 14 Noroeste 0 -- -- 52
2019-08-22 14:00:00 16.9 6 Noroeste 10 Noroeste 0 -- -- 57
2019-08-22 13:00:00 15.4 6 Noroeste 11 Noroeste 0 -- -- 52
2019-08-22 12:00:00 14.6 3 Noroeste 9 Oeste 0 -- -- 53
2019-08-22 11:00:00 14.8 6 Este 16 Sudeste 0 -- -- 49
2019-08-22 10:00:00 13.4 12 Este 19 Sudeste 0 -- -- 26
2019-08-22 09:00:00 11.1 14 Sudeste 21 Sudeste 0 -- -- 28
2019-08-22 08:00:00 10.4 16 Sudeste 22 Sudeste 0 -- -- 23
2019-08-22 07:00:00 11.1 17 Sudeste 25 Sudeste 0 -- -- 21
2019-08-22 06:00:00 11.5 20 Sudeste 24 Sudeste 0 -- -- 21
2019-08-22 05:00:00 10.7 11 Sudeste 22 Este 0 -- -- 27
2019-08-22 04:00:00 10.1 13 Este 19 Sudeste 0 -- -- 30
2019-08-22 03:00:00 10.4 13 Sudeste 22 Este 0 -- -- 45
2019-08-22 02:00:00 9.5 12 Este 17 Este 0 -- -- 73
2019-08-22 01:00:00 10.2 6 Este 16 Este 0 -- -- 78
2019-08-22 00:00:00 10.5 2 Sur 12 Nordeste 0 -- -- 83
2019-08-21 23:00:00 10.9 3 Este 12 Noroeste 0 -- -- 98
2019-08-21 22:00:00 11.8 8 Noroeste 13 Noroeste 0 -- -- 100
2019-08-21 21:00:00 13.3 3 Nordeste 15 Norte 0 -- -- 89
2019-08-21 20:00:00 15 6 Norte 25 Norte 0 -- -- 78
2019-08-21 19:00:00 16.7 10 Noroeste 22 Noroeste 0 -- -- 65
2019-08-21 18:00:00 17.3 9 Noroeste 15 Norte 0 -- -- 72
2019-08-21 17:00:00 16 6 Noroeste 10 Noroeste 0 -- -- 84
2019-08-21 16:00:00 15.3 6 Noroeste 11 Noroeste 0 -- -- 87
2019-08-21 15:00:00 15.3 6 Noroeste 12 Noroeste 0 -- -- 86
2019-08-21 14:00:00 14.8 4 Noroeste 10 Noroeste 0 -- -- 79
2019-08-21 13:00:00 15.7 0 Calma 10 Noroeste 0 -- -- 70
2019-08-21 12:00:00 15 5 Noroeste 11 Noroeste 0 -- -- 74
2019-08-21 11:00:00 15.1 4 Noroeste 10 Sur 0 -- -- 83
2019-08-21 10:00:00 14.7 3 Sudoeste 12 Sudoeste 0 -- -- 79
2019-08-21 09:00:00 12.6 2 Noroeste 7 Sur 0 -- -- 82
2019-08-21 08:00:00 11.6 3 Sudeste 30 Sur 0 -- -- 84
2019-08-21 07:00:00 12.4 12 Sur 27 Sur 0 -- -- 85
2019-08-21 06:00:00 11.9 5 Sudeste 22 Sudeste 0 -- -- 70
2019-08-21 05:00:00 12.1 19 Sudeste 26 Sur 0 -- -- 72
2019-08-21 04:00:00 11.3 16 Sudeste 24 Sudeste 0 -- -- 64
2019-08-21 03:00:00 10.8 17 Sudeste 27 Sur 0 -- -- 77
2019-08-21 02:00:00 8.2 5 Este 21 Sudeste 0 -- -- 100
2019-08-21 01:00:00 8.1 3 Este 22 Este 0 -- -- 100
2019-08-21 00:00:00 8.5 10 Este 18 Este 0 -- -- 100